createdAt,value
2019-03-20T00:00:34.839Z,1.6
2019-03-20T00:01:44.562Z,1.6
2019-03-20T00:02:44.479Z,1.5
2019-03-20T00:03:44.397Z,1.4
2019-03-20T00:04:50.626Z,1.3
2019-03-20T00:05:50.518Z,1.3
2019-03-20T00:06:50.411Z,1.2
2019-03-20T00:07:50.295Z,1.2
2019-03-20T00:08:50.199Z,1.2
2019-03-20T00:09:50.093Z,1.1
2019-03-20T00:10:49.989Z,1.1
2019-03-20T00:11:50.327Z,1
2019-03-20T00:12:50.217Z,1
2019-03-20T00:13:50.148Z,1
2019-03-20T00:14:50.035Z,1
2019-03-20T00:15:49.966Z,1
2019-03-20T00:16:49.864Z,1
2019-03-20T00:17:49.753Z,1
2019-03-20T00:18:49.644Z,1
2019-03-20T00:19:49.561Z,1
2019-03-20T00:20:49.450Z,1
2019-03-20T00:21:49.745Z,0.9
2019-03-20T00:22:49.647Z,0.9
2019-03-20T00:23:49.536Z,0.9
2019-03-20T00:24:49.477Z,0.9
2019-03-20T00:25:49.376Z,0.9
2019-03-20T00:26:49.275Z,0.8
2019-03-20T00:27:51.157Z,0.8
2019-03-20T00:28:51.060Z,0.8
2019-03-20T00:29:50.984Z,0.8
2019-03-20T00:30:50.878Z,0.8
2019-03-20T00:31:51.183Z,0.7
2019-03-20T00:32:51.097Z,0.7
2019-03-20T00:33:50.988Z,0.7
2019-03-20T00:35:01.934Z,0.8
2019-03-20T00:36:01.881Z,0.8
2019-03-20T00:37:01.783Z,0.7
2019-03-20T00:38:01.675Z,0.7
2019-03-20T00:39:01.605Z,0.8
2019-03-20T00:40:01.494Z,0.7
2019-03-20T00:41:01.401Z,0.7
2019-03-20T00:42:01.725Z,0.7
2019-03-20T00:43:01.616Z,0.7
2019-03-20T00:44:01.515Z,0.8
2019-03-20T00:45:01.399Z,0.7
2019-03-20T00:46:01.318Z,0.7
2019-03-20T00:47:01.215Z,0.7
2019-03-20T00:48:01.089Z,0.7
2019-03-20T00:49:00.973Z,0.6
2019-03-20T00:50:00.924Z,0.6
2019-03-20T00:51:00.822Z,0.6
2019-03-20T00:52:01.173Z,0.5
2019-03-20T00:53:01.096Z,0.6
2019-03-20T00:54:00.989Z,0.6
2019-03-20T00:55:00.961Z,0.6
2019-03-20T00:56:00.852Z,0.5
2019-03-20T00:57:00.779Z,0.6
2019-03-20T00:58:00.718Z,0.5
2019-03-20T00:59:00.666Z,0.6
2019-03-20T01:00:00.710Z,0.5
2019-03-20T01:01:00.681Z,0.5
2019-03-20T01:02:01.015Z,0.5
2019-03-20T01:03:00.897Z,0.5
2019-03-20T01:04:00.808Z,0.5
2019-03-20T01:05:13.166Z,0.5
2019-03-20T01:06:13.142Z,0.4
2019-03-20T01:07:13.034Z,0.4
2019-03-20T01:08:12.952Z,0.3
2019-03-20T01:09:12.832Z,0.4
2019-03-20T01:10:12.717Z,0.4
2019-03-20T01:11:12.647Z,0.4
2019-03-20T01:12:12.974Z,0.4
2019-03-20T01:13:12.852Z,0.3
2019-03-20T01:14:12.756Z,0.3
2019-03-20T01:15:12.639Z,0.3
2019-03-20T01:16:12.544Z,0.3
2019-03-20T01:17:12.446Z,0.4
2019-03-20T01:18:12.359Z,0.3
2019-03-20T01:19:12.264Z,0.3
2019-03-20T01:20:12.156Z,0.3
2019-03-20T01:21:12.056Z,0.3
2019-03-20T01:22:12.396Z,0.3
2019-03-20T01:23:12.278Z,0.3
2019-03-20T01:24:12.174Z,0.3
2019-03-20T01:25:12.062Z,0.3
2019-03-20T01:26:11.942Z,0.3
2019-03-20T01:27:14.697Z,0.3
2019-03-20T01:28:14.592Z,0.2
2019-03-20T01:29:14.486Z,0.2
2019-03-20T01:30:14.412Z,0.2
2019-03-20T01:31:14.320Z,0.2
2019-03-20T01:32:14.665Z,0.3
2019-03-20T01:33:14.577Z,0.2
2019-03-20T01:34:14.485Z,0.2
2019-03-20T01:35:24.718Z,0.2
2019-03-20T01:36:24.614Z,0.3
2019-03-20T01:37:24.530Z,0.2
2019-03-20T01:38:24.530Z,0.2
2019-03-20T01:39:24.434Z,0.3
2019-03-20T01:40:24.363Z,0.2
2019-03-20T01:41:24.250Z,0.2
2019-03-20T01:42:24.581Z,0.2
2019-03-20T01:43:24.527Z,0.1
2019-03-20T01:44:24.419Z,0.1
2019-03-20T01:45:24.341Z,0.1
2019-03-20T01:46:24.228Z,0.1
2019-03-20T01:47:24.115Z,0.1
2019-03-20T01:48:24.012Z,0.1
2019-03-20T01:49:23.918Z,0.1
2019-03-20T01:50:23.872Z,0.1
2019-03-20T01:51:23.758Z,0.1
2019-03-20T01:52:24.064Z,0
2019-03-20T01:53:23.954Z,0
2019-03-20T01:54:23.857Z,0.1
2019-03-20T01:55:23.744Z,0
2019-03-20T01:56:23.643Z,0.1
2019-03-20T01:57:23.528Z,0.1
2019-03-20T01:58:23.416Z,0.1
2019-03-20T01:59:23.338Z,0.1
2019-03-20T02:00:23.240Z,0.1
2019-03-20T02:01:23.137Z,0
2019-03-20T02:02:23.498Z,0
2019-03-20T02:22:19.300Z,1
2019-03-20T02:23:19.196Z,0.9
2019-03-20T02:24:19.114Z,0.9
2019-03-20T02:25:19.004Z,0.9
2019-03-20T02:26:18.898Z,0.8
2019-03-20T02:27:18.775Z,0.7
2019-03-20T02:28:18.689Z,0.7
2019-03-20T02:29:18.602Z,0.6
2019-03-20T02:30:18.621Z,0.5
2019-03-20T02:31:18.713Z,0.5
2019-03-20T02:32:19.095Z,0.4
2019-03-20T02:42:17.448Z,0.7
2019-03-20T02:43:17.352Z,0.7
2019-03-20T02:44:17.256Z,0.6
2019-03-20T02:45:17.221Z,0.7
2019-03-20T02:46:17.168Z,0.6
2019-03-20T02:47:17.114Z,0.5
2019-03-20T02:48:17.024Z,0.5
2019-03-20T02:49:16.928Z,0.5
2019-03-20T02:50:16.876Z,0.4
2019-03-20T02:51:16.799Z,0.3
2019-03-20T02:52:17.185Z,0.3
2019-03-20T02:53:17.098Z,0.2
2019-03-20T02:54:17.018Z,0.2
2019-03-20T02:55:16.945Z,0.2
2019-03-20T02:56:16.962Z,0.2
2019-03-20T02:57:18.165Z,0.1
2019-03-20T02:58:18.085Z,0.1
2019-03-20T02:59:18.000Z,0
2019-03-20T03:00:17.932Z,0
2019-03-20T03:01:17.911Z,0
2019-03-20T03:02:18.261Z,-0.1
2019-03-20T03:03:18.192Z,-0.1
2019-03-20T03:04:18.201Z,-0.1
2019-03-20T03:05:18.139Z,-0.2
2019-03-20T03:06:18.068Z,-0.3
2019-03-20T03:07:18.015Z,-0.3
2019-03-20T03:08:17.918Z,-0.3
2019-03-20T03:09:17.803Z,-0.3
2019-03-20T03:10:17.841Z,-0.3
2019-03-20T03:11:17.923Z,-0.3
2019-03-20T03:12:18.254Z,-0.3
2019-03-20T03:13:18.249Z,-0.4
2019-03-20T03:14:18.155Z,-0.3
2019-03-20T03:15:18.085Z,-0.3
2019-03-20T03:16:18.001Z,-0.3
2019-03-20T03:17:17.931Z,-0.4
2019-03-20T03:18:17.862Z,-0.4
2019-03-20T03:19:17.795Z,-0.4
2019-03-20T03:20:17.764Z,-0.4
2019-03-20T03:21:17.695Z,-0.4
2019-03-20T03:22:18.029Z,-0.4
2019-03-20T03:23:18.036Z,-0.4
2019-03-20T03:24:17.966Z,-0.4
2019-03-20T03:25:17.979Z,-0.4
2019-03-20T03:26:17.887Z,-0.3
2019-03-20T03:28:17.531Z,-0.1
2019-03-20T03:29:17.512Z,0
2019-03-20T03:30:18.045Z,0.1
2019-03-20T03:31:18.331Z,0.1
2019-03-20T03:32:18.832Z,0.2
2019-03-20T03:33:18.837Z,0.1
2019-03-20T03:34:18.945Z,0.1
2019-03-20T03:35:20.921Z,0
2019-03-20T03:36:22.494Z,0
2019-03-20T03:37:22.437Z,0
2019-03-20T03:38:22.389Z,0
2019-03-20T03:39:22.332Z,-0.1
2019-03-20T03:40:22.256Z,-0.1
2019-03-20T03:41:22.149Z,-0.2
2019-03-20T03:42:22.598Z,-0.2
2019-03-20T03:43:25.122Z,-0.1
2019-03-20T03:44:25.123Z,-0.2
2019-03-20T03:45:25.060Z,-0.3
2019-03-20T03:46:24.959Z,-0.3
2019-03-20T03:47:24.875Z,-0.4
2019-03-20T03:48:24.817Z,-0.4
2019-03-20T03:49:24.718Z,-0.4
2019-03-20T03:50:24.775Z,-0.5
2019-03-20T03:51:24.699Z,-0.5
2019-03-20T03:52:25.062Z,-0.5
2019-03-20T03:53:24.977Z,-0.5
2019-03-20T03:54:24.964Z,-0.5
2019-03-20T03:55:24.903Z,-0.5
2019-03-20T03:56:24.822Z,-0.5
2019-03-20T03:57:24.755Z,-0.5
2019-03-20T03:58:24.651Z,-0.5
2019-03-20T03:59:24.616Z,-0.5
2019-03-20T04:00:24.548Z,-0.5
2019-03-20T04:01:24.506Z,-0.5
2019-03-20T04:02:24.939Z,-0.6
2019-03-20T04:03:24.857Z,-0.6
2019-03-20T04:04:24.779Z,-0.6
2019-03-20T04:05:24.695Z,-0.6
2019-03-20T04:07:36.371Z,-0.4
2019-03-20T04:12:35.646Z,-0.1
2019-03-20T04:13:35.550Z,-0.1
2019-03-20T04:14:35.446Z,-0.1
2019-03-20T04:15:37.013Z,-0.1
2019-03-20T04:16:36.922Z,-0.2
2019-03-20T04:17:36.923Z,-0.2
2019-03-20T04:18:36.839Z,-0.3
2019-03-20T04:19:36.759Z,-0.3
2019-03-20T04:20:36.711Z,-0.4
2019-03-20T04:21:36.605Z,-0.4
2019-03-20T04:22:36.944Z,-0.4
2019-03-20T04:23:36.845Z,-0.4
2019-03-20T04:24:36.784Z,-0.5
2019-03-20T04:25:36.707Z,-0.5
2019-03-20T04:26:36.624Z,-0.5
2019-03-20T04:27:36.522Z,-0.5
2019-03-20T04:28:36.458Z,-0.4
2019-03-20T04:29:36.373Z,-0.5
2019-03-20T04:30:36.290Z,-0.5
2019-03-20T04:31:36.222Z,-0.5
2019-03-20T04:32:36.606Z,-0.5
2019-03-20T04:33:36.539Z,-0.5
2019-03-20T04:34:36.458Z,-0.5
2019-03-20T04:35:36.362Z,-0.6
2019-03-20T04:36:48.696Z,-0.5
2019-03-20T04:37:48.601Z,-0.6
2019-03-20T04:38:48.510Z,-0.6
2019-03-20T04:39:48.405Z,-0.6
2019-03-20T04:40:48.283Z,-0.6
2019-03-20T04:41:48.223Z,-0.6
2019-03-20T04:42:48.666Z,-0.6
2019-03-20T04:43:48.592Z,-0.6
2019-03-20T04:44:48.482Z,-0.6
2019-03-20T04:45:48.388Z,-0.6
2019-03-20T04:46:48.272Z,-0.6
2019-03-20T04:47:48.176Z,-0.6
2019-03-20T04:48:48.070Z,-0.6
2019-03-20T04:49:47.947Z,-0.6
2019-03-20T04:50:47.837Z,-0.6
2019-03-20T04:51:47.724Z,-0.7
2019-03-20T04:52:48.046Z,-0.7
2019-03-20T04:53:47.940Z,-0.7
2019-03-20T04:54:47.833Z,-0.7
2019-03-20T04:55:47.721Z,-0.6
2019-03-20T04:56:47.628Z,-0.6
2019-03-20T04:57:47.566Z,-0.6
2019-03-20T04:58:47.444Z,-0.6
2019-03-20T04:59:47.335Z,-0.6
2019-03-20T05:00:47.255Z,-0.7
2019-03-20T05:01:47.166Z,-0.7
2019-03-20T05:02:47.548Z,-0.7
2019-03-20T05:03:47.446Z,-0.7
2019-03-20T05:04:47.338Z,-0.7
2019-03-20T05:05:47.218Z,-0.7
2019-03-20T05:07:59.207Z,-0.6
2019-03-20T05:08:59.109Z,-0.5
2019-03-20T05:10:58.743Z,-0.4
2019-03-20T05:11:58.638Z,-0.3
2019-03-20T05:12:58.939Z,-0.2
2019-03-20T05:13:58.852Z,-0.2
2019-03-20T05:14:58.763Z,-0.2
2019-03-20T05:16:01.725Z,-0.2
2019-03-20T05:17:01.616Z,-0.2
2019-03-20T05:18:01.584Z,-0.3
2019-03-20T05:19:01.510Z,-0.3
2019-03-20T05:20:01.396Z,-0.4
2019-03-20T05:21:01.307Z,-0.3
2019-03-20T05:22:01.218Z,-0.4
2019-03-20T05:23:01.556Z,-0.4
2019-03-20T05:24:01.474Z,-0.4
2019-03-20T05:25:01.380Z,-0.4
2019-03-20T05:26:01.280Z,-0.4
2019-03-20T05:27:01.241Z,-0.4
2019-03-20T05:28:01.126Z,-0.5
2019-03-20T05:29:01.014Z,-0.5
2019-03-20T05:30:00.950Z,-0.5
2019-03-20T05:31:00.858Z,-0.6
2019-03-20T05:32:00.744Z,-0.6
2019-03-20T05:33:01.071Z,-0.6
2019-03-20T05:34:00.973Z,-0.6
2019-03-20T05:35:00.901Z,-0.6
2019-03-20T05:36:00.883Z,-0.6
2019-03-20T05:37:11.375Z,-0.6
2019-03-20T05:38:11.255Z,-0.6
2019-03-20T05:39:11.142Z,-0.5
2019-03-20T05:40:11.040Z,-0.5
2019-03-20T05:41:10.957Z,-0.6
2019-03-20T05:42:10.857Z,-0.6
2019-03-20T05:43:11.176Z,-0.6
2019-03-20T05:44:11.068Z,-0.6
2019-03-20T05:45:10.952Z,-0.6
2019-03-20T05:46:10.852Z,-0.6
2019-03-20T05:47:10.738Z,-0.6
2019-03-20T05:48:10.645Z,-0.6
2019-03-20T05:49:10.521Z,-0.6
2019-03-20T05:50:10.430Z,-0.6
2019-03-20T05:51:10.372Z,-0.6
2019-03-20T05:52:10.256Z,-0.6
2019-03-20T05:53:10.576Z,-0.6
2019-03-20T05:54:10.482Z,-0.6
2019-03-20T05:55:10.362Z,-0.6
2019-03-20T05:56:10.265Z,-0.6
2019-03-20T05:57:12.461Z,-0.6
2019-03-20T05:58:12.623Z,-0.6
2019-03-20T05:59:12.519Z,-0.6
2019-03-20T06:00:12.406Z,-0.6
2019-03-20T06:01:12.303Z,-0.5
2019-03-20T06:02:12.226Z,-0.5
2019-03-20T06:03:12.560Z,-0.5
2019-03-20T06:04:12.448Z,-0.5
2019-03-20T06:05:12.325Z,-0.5
2019-03-20T06:06:12.226Z,-0.5
2019-03-20T06:07:22.513Z,-0.5
2019-03-20T06:08:22.411Z,-0.5
2019-03-20T06:09:22.365Z,-0.4
2019-03-20T06:10:22.279Z,-0.4
2019-03-20T06:11:22.170Z,-0.5
2019-03-20T06:12:22.107Z,-0.4
2019-03-20T06:13:22.420Z,-0.4
2019-03-20T06:14:22.310Z,-0.5
2019-03-20T06:15:24.485Z,-0.4
2019-03-20T06:16:24.589Z,-0.4
2019-03-20T06:17:24.508Z,-0.4
2019-03-20T06:18:24.418Z,-0.4
2019-03-20T06:19:24.327Z,-0.4
2019-03-20T06:20:24.227Z,-0.4
2019-03-20T06:21:24.139Z,-0.4
2019-03-20T06:22:24.033Z,-0.4
2019-03-20T06:23:24.357Z,-0.4
2019-03-20T06:24:24.252Z,-0.3
2019-03-20T06:25:24.148Z,-0.3
2019-03-20T06:26:24.037Z,-0.2
2019-03-20T06:27:23.927Z,-0.2
2019-03-20T06:28:23.845Z,-0.2
2019-03-20T06:29:23.744Z,-0.1
2019-03-20T06:30:23.635Z,-0.2
2019-03-20T06:31:23.519Z,-0.1
2019-03-20T06:32:23.432Z,-0.1
2019-03-20T06:33:23.771Z,0
2019-03-20T06:34:23.665Z,0.1
2019-03-20T06:35:23.567Z,0.1
2019-03-20T06:36:23.475Z,0.2
2019-03-20T06:37:33.415Z,0.2
2019-03-20T06:38:33.345Z,0.3
2019-03-20T06:39:33.237Z,0.3
2019-03-20T06:40:33.129Z,0.5
2019-03-20T06:41:33.048Z,0.5
2019-03-20T06:42:32.939Z,0.5
2019-03-20T06:43:33.305Z,0.6
2019-03-20T06:44:33.211Z,0.7
2019-03-20T06:45:33.105Z,0.9
2019-03-20T06:46:32.992Z,0.9
2019-03-20T06:47:32.876Z,1.1
2019-03-20T06:48:32.830Z,1.2
2019-03-20T06:49:32.758Z,1.3
2019-03-20T06:50:32.649Z,1.4
2019-03-20T06:51:32.595Z,1.6
2019-03-20T06:52:32.509Z,1.7
2019-03-20T06:53:32.835Z,1.8
2019-03-20T06:54:32.724Z,2
2019-03-20T06:55:32.624Z,2.1
2019-03-20T06:56:32.550Z,2.3
2019-03-20T06:57:32.448Z,2.5
2019-03-20T06:58:32.349Z,2.7
2019-03-20T06:59:32.231Z,2.8
2019-03-20T07:00:32.149Z,3
2019-03-20T07:01:32.041Z,3.1
2019-03-20T07:02:31.963Z,3.2
2019-03-20T07:03:32.277Z,3.4
2019-03-20T07:04:32.167Z,3.5
2019-03-20T07:05:32.067Z,3.8
2019-03-20T07:06:31.959Z,3.9
2019-03-20T07:07:31.867Z,4.1
2019-03-20T07:08:44.369Z,4.2
2019-03-20T07:09:44.243Z,4.3
2019-03-20T07:10:44.151Z,4.3
2019-03-20T07:11:44.047Z,4.4
2019-03-20T07:12:43.965Z,4.5
2019-03-20T07:13:44.259Z,4.6
2019-03-20T07:14:44.141Z,4.6
2019-03-20T07:15:44.054Z,4.7
2019-03-20T07:16:43.945Z,4.9
2019-03-20T07:17:43.867Z,5
2019-03-20T07:18:43.813Z,5.1
2019-03-20T07:19:43.718Z,5.1
2019-03-20T07:20:43.643Z,5.2
2019-03-20T07:21:43.548Z,5.2
2019-03-20T07:22:43.443Z,5.2
2019-03-20T07:23:43.778Z,5.3
2019-03-20T07:24:43.667Z,5.3
2019-03-20T07:25:43.571Z,5.4
2019-03-20T07:26:43.477Z,5.4
2019-03-20T07:27:43.412Z,5.5
2019-03-20T07:28:43.330Z,5.5
2019-03-20T07:29:43.251Z,5.4
2019-03-20T07:30:43.130Z,5.6
2019-03-20T07:31:43.059Z,5.6
2019-03-20T07:32:42.948Z,5.6
2019-03-20T07:33:43.351Z,4.2
2019-03-20T07:34:43.300Z,5.8
2019-03-20T07:35:43.213Z,5.8
2019-03-20T07:36:43.128Z,5.8
2019-03-20T07:37:43.041Z,5.7
2019-03-20T07:38:42.921Z,5.8
2019-03-20T07:39:42.839Z,5.8
2019-03-20T07:40:42.747Z,5.9
2019-03-20T07:41:42.657Z,5.8
2019-03-20T07:42:42.560Z,5.8
2019-03-20T07:43:42.927Z,5.7
2019-03-20T07:44:42.837Z,5.6
2019-03-20T07:45:42.724Z,5.6
2019-03-20T07:46:42.625Z,5.6
2019-03-20T07:47:42.533Z,5.5
2019-03-20T07:48:42.433Z,5.4
2019-03-20T07:49:42.332Z,5.4
2019-03-20T07:50:42.253Z,5.5
2019-03-20T07:51:42.400Z,5.5
2019-03-20T07:52:42.306Z,5.5
2019-03-20T07:53:42.660Z,5.7
2019-03-20T07:54:42.561Z,5.8
2019-03-20T07:55:42.461Z,5.9
2019-03-20T07:56:42.392Z,5.9
2019-03-20T07:57:42.295Z,5.9
2019-03-20T07:58:42.193Z,6
2019-03-20T07:59:42.080Z,5.9
2019-03-20T08:00:41.960Z,6
2019-03-20T08:01:41.870Z,6.2
2019-03-20T08:02:41.775Z,6.2
2019-03-20T08:03:42.126Z,6.2
2019-03-20T08:04:42.016Z,6.3
2019-03-20T08:05:41.932Z,6.4
2019-03-20T08:06:41.808Z,6.5
2019-03-20T08:07:41.729Z,6.5
2019-03-20T08:08:41.633Z,6.5
2019-03-20T08:09:41.572Z,6.7
2019-03-20T08:10:41.468Z,6.8
2019-03-20T08:11:41.392Z,6.9
2019-03-20T08:12:41.302Z,7.1
2019-03-20T08:13:41.632Z,7.2
2019-03-20T08:14:41.526Z,7.3
2019-03-20T08:15:41.422Z,7.3
2019-03-20T08:16:41.307Z,7.3
2019-03-20T08:17:41.242Z,7.2
2019-03-20T08:18:41.271Z,7.2
2019-03-20T08:19:41.178Z,7.3
2019-03-20T08:20:41.069Z,7.3
2019-03-20T08:21:40.948Z,7.4
2019-03-20T08:22:40.863Z,7.6
2019-03-20T08:23:41.208Z,7.6
2019-03-20T08:24:41.080Z,7.6
2019-03-20T08:25:40.968Z,7.6
2019-03-20T08:26:40.888Z,7.7
2019-03-20T08:27:40.777Z,7.7
2019-03-20T08:28:40.688Z,7.8
2019-03-20T08:29:40.604Z,7.7
2019-03-20T08:30:40.509Z,7.8
2019-03-20T08:31:40.392Z,7.8
2019-03-20T08:32:40.283Z,7.8
2019-03-20T08:33:40.578Z,7.7
2019-03-20T08:34:40.498Z,7.7
2019-03-20T08:35:40.394Z,7.7
2019-03-20T08:36:40.298Z,7.9
2019-03-20T08:37:40.216Z,8
2019-03-20T08:38:40.143Z,8
2019-03-20T08:39:40.047Z,8.1
2019-03-20T08:40:39.964Z,8.1
2019-03-20T08:41:39.853Z,8.2
2019-03-20T08:42:39.742Z,8.2
2019-03-20T08:43:40.060Z,8.2
2019-03-20T08:44:39.979Z,8.3
2019-03-20T08:45:39.897Z,8.2
2019-03-20T08:46:39.781Z,8.2
2019-03-20T08:47:39.688Z,8.2
2019-03-20T08:48:39.614Z,8.3
2019-03-20T08:49:39.502Z,8.3
2019-03-20T08:50:39.431Z,8.3
2019-03-20T08:51:39.322Z,8.2
2019-03-20T08:52:39.212Z,8.2
2019-03-20T08:53:39.598Z,8.3
2019-03-20T08:54:39.490Z,8.2
2019-03-20T08:55:39.382Z,8.3
2019-03-20T08:56:39.302Z,8.2
2019-03-20T08:57:39.279Z,8.3
2019-03-20T08:58:39.168Z,8.2
2019-03-20T08:59:39.109Z,8.2
2019-03-20T09:00:39.016Z,8.3
2019-03-20T09:01:38.944Z,8.2
2019-03-20T09:02:38.851Z,8.2
2019-03-20T09:03:39.167Z,8.3
2019-03-20T09:04:39.094Z,8.3
2019-03-20T09:05:39.009Z,8.2
2019-03-20T09:06:38.946Z,8.4
2019-03-20T09:07:48.259Z,8.4
2019-03-20T09:08:48.149Z,8.3
2019-03-20T09:09:48.042Z,8.1
2019-03-20T09:10:50.470Z,8.2
2019-03-20T09:11:50.372Z,8.2
2019-03-20T09:12:50.272Z,8.3
2019-03-20T09:13:50.578Z,8.3
2019-03-20T09:14:50.480Z,8.3
2019-03-20T09:15:50.370Z,8.2
2019-03-20T09:16:50.268Z,8.1
2019-03-20T09:17:50.154Z,8.2
2019-03-20T09:18:50.036Z,8.2
2019-03-20T09:19:49.942Z,8.4
2019-03-20T09:20:49.836Z,8.5
2019-03-20T09:21:49.757Z,8.5
2019-03-20T09:22:49.646Z,8.2
2019-03-20T09:23:49.989Z,8.4
2019-03-20T09:24:49.895Z,8.4
2019-03-20T09:25:50.032Z,8.6
2019-03-20T09:26:49.995Z,8.7
2019-03-20T09:27:49.903Z,8.3
2019-03-20T09:28:49.802Z,8.5
2019-03-20T09:29:49.702Z,8.6
2019-03-20T09:30:49.573Z,8.7
2019-03-20T09:31:49.466Z,8.7
2019-03-20T09:32:49.397Z,8.6
2019-03-20T09:33:49.859Z,8.5
2019-03-20T09:34:50.086Z,7.9
2019-03-20T09:35:49.979Z,7.8
2019-03-20T09:36:49.917Z,8.1
2019-03-20T09:37:53.298Z,8.1
2019-03-20T09:38:53.200Z,8.1
2019-03-20T09:39:53.106Z,8.1
2019-03-20T09:40:52.993Z,8.1
2019-03-20T09:41:52.890Z,8.2
2019-03-20T09:42:52.837Z,8.2
2019-03-20T09:43:53.193Z,8.2
2019-03-20T09:44:53.095Z,8
2019-03-20T09:45:52.998Z,8
2019-03-20T09:46:52.901Z,8.1
2019-03-20T09:47:52.800Z,7.9
2019-03-20T09:48:52.722Z,7.5
2019-03-20T09:49:52.655Z,7.3
2019-03-20T09:50:52.558Z,7.5
2019-03-20T09:51:52.474Z,6.9
2019-03-20T09:52:52.389Z,6.9
2019-03-20T09:53:52.733Z,7.4
2019-03-20T09:54:52.647Z,7.7
2019-03-20T09:55:52.542Z,7.8
2019-03-20T09:56:52.451Z,8.1
2019-03-20T09:57:52.351Z,8.2
2019-03-20T09:58:52.289Z,8.5
2019-03-20T09:59:52.236Z,8.6
2019-03-20T10:00:52.131Z,8.6
2019-03-20T10:01:52.030Z,8.6
2019-03-20T10:02:51.907Z,8.6
2019-03-20T10:03:52.219Z,8.7
2019-03-20T10:04:52.164Z,8.9
2019-03-20T10:05:52.106Z,9
2019-03-20T10:06:51.998Z,9
2019-03-20T10:07:51.946Z,9
2019-03-20T10:08:55.092Z,9
2019-03-20T10:09:55.027Z,9.1
2019-03-20T10:10:54.925Z,9.1
2019-03-20T10:11:54.823Z,8.8
2019-03-20T10:12:57.149Z,8.7
2019-03-20T10:13:57.491Z,8.8
2019-03-20T10:14:57.417Z,8.9
2019-03-20T10:15:57.318Z,8.7
2019-03-20T10:16:57.195Z,8.9
2019-03-20T10:17:57.103Z,9
2019-03-20T10:18:57.041Z,9
2019-03-20T10:19:56.927Z,8.7
2019-03-20T10:20:56.819Z,8.6
2019-03-20T10:21:56.753Z,8.9
2019-03-20T10:22:56.693Z,9
2019-03-20T10:23:56.993Z,9
2019-03-20T10:24:56.861Z,8.9
2019-03-20T10:25:56.757Z,9
2019-03-20T10:26:56.649Z,9.1
2019-03-20T10:27:56.549Z,9.1
2019-03-20T10:28:56.423Z,9.1
2019-03-20T10:29:56.379Z,9.2
2019-03-20T10:30:56.291Z,8.8
2019-03-20T10:31:56.182Z,8.4
2019-03-20T10:32:56.099Z,8.5
2019-03-20T10:33:56.425Z,8.4
2019-03-20T10:34:56.316Z,8.3
2019-03-20T10:35:56.215Z,8
2019-03-20T10:36:56.099Z,8.2
2019-03-20T10:37:55.997Z,8.3
2019-03-20T10:39:07.511Z,8.5
2019-03-20T10:40:07.650Z,8.3
2019-03-20T10:41:07.584Z,8.2
2019-03-20T10:42:07.508Z,8.3
2019-03-20T10:43:07.413Z,8.3
2019-03-20T10:44:07.715Z,8.5
2019-03-20T10:45:07.609Z,8.6
2019-03-20T10:46:07.498Z,8.8
2019-03-20T10:47:07.421Z,8.9
2019-03-20T10:48:07.308Z,8.9
2019-03-20T10:49:07.199Z,9
2019-03-20T10:50:07.133Z,8.9
2019-03-20T10:51:07.061Z,8.8
2019-03-20T10:52:06.978Z,8.7
2019-03-20T10:53:06.883Z,8.8
2019-03-20T10:54:07.326Z,8.6
2019-03-20T10:55:07.263Z,8.7
2019-03-20T10:56:07.161Z,8.8
2019-03-20T10:57:07.101Z,8.6
2019-03-20T10:58:06.986Z,8.6
2019-03-20T10:59:06.950Z,8.7
2019-03-20T11:00:06.863Z,8.8
2019-03-20T11:01:06.763Z,8.6
2019-03-20T11:02:06.653Z,8.5
2019-03-20T11:03:06.555Z,8.3
2019-03-20T11:04:06.903Z,8.1
2019-03-20T11:05:06.838Z,8.1
2019-03-20T11:06:06.810Z,8.3
2019-03-20T11:07:06.695Z,8.3
2019-03-20T11:08:06.651Z,8.3
2019-03-20T11:09:19.168Z,8.4
2019-03-20T11:10:19.093Z,8.5
2019-03-20T11:11:27.934Z,8.5
2019-03-20T11:12:27.863Z,8.5
2019-03-20T11:13:27.813Z,8.4
2019-03-20T11:14:28.170Z,8.3
2019-03-20T11:15:30.313Z,8.5
2019-03-20T11:16:30.226Z,8.3
2019-03-20T11:17:30.141Z,8.3
2019-03-20T11:18:30.065Z,8.5
2019-03-20T11:19:30.036Z,8.2
2019-03-20T11:20:29.973Z,7.9
2019-03-20T11:21:29.860Z,7.8
2019-03-20T11:22:29.752Z,7.9
2019-03-20T11:23:29.667Z,7.8
2019-03-20T11:24:30.039Z,7.9
2019-03-20T11:25:29.943Z,7.9
2019-03-20T11:26:29.860Z,7.8
2019-03-20T11:27:29.758Z,7.9
2019-03-20T11:28:29.706Z,7.9
2019-03-20T11:29:29.646Z,7.8
2019-03-20T11:30:29.570Z,7.8
2019-03-20T11:31:29.471Z,7.8
2019-03-20T11:32:29.384Z,8
2019-03-20T11:33:29.283Z,8.1
2019-03-20T11:34:29.637Z,8.1
2019-03-20T11:35:29.635Z,8.1
2019-03-20T11:36:29.608Z,8.1
2019-03-20T11:37:29.521Z,8
2019-03-20T11:38:29.400Z,8
2019-03-20T11:39:30.620Z,8
2019-03-20T11:40:30.592Z,7.5
2019-03-20T11:41:30.508Z,7.4
2019-03-20T11:42:30.396Z,7.2
2019-03-20T11:43:30.290Z,7.1
2019-03-20T11:44:30.606Z,6.9
2019-03-20T11:45:30.536Z,7
2019-03-20T11:46:30.448Z,7.2
2019-03-20T11:47:30.322Z,7.3
2019-03-20T11:48:30.216Z,7.4
2019-03-20T11:49:32.904Z,7.2
2019-03-20T11:50:32.801Z,7.2
2019-03-20T11:51:32.746Z,7.1
2019-03-20T11:52:32.660Z,7
2019-03-20T11:53:32.566Z,7
2019-03-20T11:54:32.896Z,7.1
2019-03-20T11:55:32.800Z,7.2
2019-03-20T11:56:32.722Z,7.3
2019-03-20T11:57:32.684Z,7.3
2019-03-20T11:58:32.582Z,7.4
2019-03-20T11:59:32.489Z,7.4
2019-03-20T12:00:32.396Z,7.6
2019-03-20T12:01:32.288Z,7.8
2019-03-20T12:02:32.224Z,7.9
2019-03-20T12:03:32.144Z,7.9
2019-03-20T12:04:32.486Z,7.7
2019-03-20T12:05:32.385Z,7.7
2019-03-20T12:06:32.285Z,7.7
2019-03-20T12:07:32.172Z,7.5
2019-03-20T12:08:32.078Z,7.5
2019-03-20T12:09:41.884Z,7.6
2019-03-20T12:10:41.796Z,7.8
2019-03-20T12:11:46.778Z,7.8
2019-03-20T12:12:46.732Z,7.9
2019-03-20T12:13:46.668Z,7.8
2019-03-20T12:14:47.008Z,7.9
2019-03-20T12:15:46.956Z,7.9
2019-03-20T12:16:46.848Z,8
2019-03-20T12:17:46.756Z,7.8
2019-03-20T12:18:46.708Z,7.9
2019-03-20T12:19:46.612Z,7.9
2019-03-20T12:20:46.566Z,7.8
2019-03-20T12:21:46.478Z,7.8
2019-03-20T12:22:46.399Z,7.9
2019-03-20T12:23:46.332Z,7.9
2019-03-20T12:24:46.704Z,7.9
2019-03-20T12:25:46.608Z,7.8
2019-03-20T12:26:46.510Z,7.8
2019-03-20T12:27:46.403Z,7.8
2019-03-20T12:28:46.276Z,7.8
2019-03-20T12:29:46.195Z,7.8
2019-03-20T12:30:46.089Z,7.7
2019-03-20T12:31:45.977Z,7.6
2019-03-20T12:32:45.883Z,7.5
2019-03-20T12:33:45.806Z,7.5
2019-03-20T12:34:46.202Z,7.5
2019-03-20T12:35:46.096Z,7.5
2019-03-20T12:36:45.980Z,7.6
2019-03-20T12:37:45.960Z,7.6
2019-03-20T12:38:45.875Z,7.6
2019-03-20T12:39:54.122Z,7.7
2019-03-20T12:40:54.026Z,7.8
2019-03-20T12:42:53.707Z,7.7
2019-03-20T12:43:53.599Z,7.8
2019-03-20T12:44:53.963Z,7.9
2019-03-20T12:45:53.868Z,8
2019-03-20T12:46:53.774Z,7.9
2019-03-20T12:47:53.672Z,7.7
2019-03-20T12:48:53.582Z,7.7
2019-03-20T12:49:53.488Z,7.8
2019-03-20T12:50:53.452Z,7.8
2019-03-20T12:51:53.366Z,7.7
2019-03-20T12:52:53.339Z,7.8
2019-03-20T12:53:53.253Z,7.7
2019-03-20T12:54:53.610Z,7.7
2019-03-20T12:55:53.551Z,7.7
2019-03-20T12:56:53.467Z,7.8
2019-03-20T12:57:53.339Z,7.7
2019-03-20T12:58:53.233Z,7.6
2019-03-20T12:59:53.134Z,7.6
2019-03-20T13:00:55.147Z,7.7
2019-03-20T13:01:55.063Z,7.5
2019-03-20T13:02:54.957Z,7.4
2019-03-20T13:03:54.844Z,7.4
2019-03-20T13:04:55.215Z,7.5
2019-03-20T13:05:55.158Z,7.3
2019-03-20T13:06:55.076Z,7.2
2019-03-20T13:07:55.697Z,7.2
2019-03-20T13:09:06.421Z,7.3
2019-03-20T13:10:06.373Z,7.3
2019-03-20T13:11:06.315Z,7.3
2019-03-20T13:12:07.227Z,7.2
2019-03-20T13:13:07.457Z,7.2
2019-03-20T13:14:07.572Z,7.3
2019-03-20T13:15:07.936Z,7.1
2019-03-20T13:16:07.881Z,7.2
2019-03-20T13:17:07.771Z,7.3
2019-03-20T13:18:07.671Z,7.4
2019-03-20T13:19:07.577Z,7.4
2019-03-20T13:20:07.497Z,7.4
2019-03-20T13:21:07.409Z,7.5
2019-03-20T13:22:07.331Z,7.4
2019-03-20T13:23:07.215Z,7.5
2019-03-20T13:24:07.089Z,7.5
2019-03-20T13:25:07.423Z,7.4
2019-03-20T13:26:07.312Z,7.4
2019-03-20T13:27:07.271Z,7.4
2019-03-20T13:28:07.185Z,7.2
2019-03-20T13:29:07.069Z,6.9
2019-03-20T13:30:06.971Z,6.9
2019-03-20T13:31:06.880Z,7.1
2019-03-20T13:32:06.818Z,7.2
2019-03-20T13:33:06.729Z,7.3
2019-03-20T13:34:06.641Z,7.3
2019-03-20T13:35:06.984Z,7.2
2019-03-20T13:36:06.895Z,7.2
2019-03-20T13:37:06.850Z,7.2
2019-03-20T13:38:06.787Z,7.3
2019-03-20T13:39:06.733Z,7.3
2019-03-20T13:40:15.406Z,7.4
2019-03-20T13:41:15.311Z,7.5
2019-03-20T13:42:15.218Z,7.5
2019-03-20T13:43:15.128Z,7.6
2019-03-20T13:44:15.015Z,7.5
2019-03-20T13:45:15.349Z,7.5
2019-03-20T13:46:15.251Z,7.6
2019-03-20T13:47:15.151Z,7.6
2019-03-20T13:48:15.073Z,7.5
2019-03-20T13:49:15.023Z,7.5
2019-03-20T13:50:14.912Z,7.5
2019-03-20T13:51:14.805Z,7.4
2019-03-20T13:52:14.703Z,7.5
2019-03-20T13:53:16.079Z,7.4
2019-03-20T13:54:15.985Z,7.3
2019-03-20T13:55:16.318Z,7.4
2019-03-20T13:56:16.208Z,7.5
2019-03-20T13:57:16.115Z,7.6
2019-03-20T13:58:16.065Z,7.6
2019-03-20T13:59:15.988Z,7.6
2019-03-20T14:00:15.892Z,7.5
2019-03-20T14:01:15.781Z,7.5
2019-03-20T14:02:15.683Z,7.3
2019-03-20T14:03:15.591Z,7.2
2019-03-20T14:04:15.538Z,7.2
2019-03-20T14:05:15.873Z,7.2
2019-03-20T14:06:15.785Z,7.2
2019-03-20T14:07:15.682Z,7.3
2019-03-20T14:08:15.582Z,7.3
2019-03-20T14:09:15.462Z,7.3
2019-03-20T14:10:26.255Z,7.2
2019-03-20T14:11:26.143Z,7.1
2019-03-20T14:12:26.040Z,7
2019-03-20T14:13:25.944Z,7.1
2019-03-20T14:14:28.835Z,7.1
2019-03-20T14:15:29.243Z,6.9
2019-03-20T14:16:29.140Z,6.9
2019-03-20T14:17:29.033Z,6.9
2019-03-20T14:18:28.966Z,6.9
2019-03-20T14:19:28.853Z,7
2019-03-20T14:20:28.802Z,7
2019-03-20T14:21:28.753Z,6.9
2019-03-20T14:22:28.697Z,6.9
2019-03-20T14:23:28.581Z,6.9
2019-03-20T14:24:28.487Z,6.9